createdAt,value
2023-04-24T00:00:02.626Z,99.90
2023-04-24T00:02:29.841Z,99.90
2023-04-24T00:04:57.710Z,99.90
2023-04-24T00:07:24.912Z,99.90
2023-04-24T00:09:51.984Z,99.90
2023-04-24T00:12:19.094Z,99.90
2023-04-24T00:14:46.161Z,99.90
2023-04-24T00:17:13.436Z,99.90
2023-04-24T00:19:40.686Z,99.90
2023-04-24T00:22:08.121Z,99.90
2023-04-24T00:24:35.090Z,99.90
2023-04-24T00:27:02.251Z,99.90
2023-04-24T00:29:29.722Z,99.90
2023-04-24T00:31:57.024Z,99.90
2023-04-24T00:34:24.269Z,99.90
2023-04-24T00:36:53.314Z,99.90
2023-04-24T00:39:21.101Z,99.90
2023-04-24T00:41:49.403Z,99.90
2023-04-24T00:44:16.590Z,99.90
2023-04-24T00:46:44.600Z,99.90
2023-04-24T00:49:13.000Z,99.90
2023-04-24T00:51:41.836Z,99.90
2023-04-24T00:54:08.928Z,99.90
2023-04-24T00:56:36.151Z,99.90
2023-04-24T00:59:03.396Z,99.90
2023-04-24T01:01:30.584Z,99.90
2023-04-24T01:04:00.412Z,99.90
2023-04-24T01:06:32.319Z,99.90
2023-04-24T01:09:01.514Z,99.90
2023-04-24T01:11:28.676Z,99.90
2023-04-24T01:13:55.912Z,99.90
2023-04-24T01:16:22.994Z,99.90
2023-04-24T01:18:50.314Z,99.90
2023-04-24T01:21:18.289Z,99.90
2023-04-24T01:23:46.926Z,99.90
2023-04-24T01:26:16.190Z,99.90
2023-04-24T01:28:43.677Z,99.90
2023-04-24T01:31:10.762Z,99.90
2023-04-24T01:33:38.056Z,99.90
2023-04-24T01:36:05.839Z,99.90
2023-04-24T01:38:32.896Z,99.90
2023-04-24T01:40:59.948Z,99.90
2023-04-24T01:43:27.145Z,99.90
2023-04-24T01:45:54.115Z,99.90
2023-04-24T01:48:21.515Z,99.90
2023-04-24T01:50:48.544Z,99.90
2023-04-24T01:53:15.740Z,99.90
2023-04-24T01:55:42.842Z,99.90
2023-04-24T01:58:10.302Z,99.90
2023-04-24T02:00:37.452Z,99.90
2023-04-24T02:03:04.640Z,99.90
2023-04-24T02:05:31.850Z,99.90
2023-04-24T02:07:58.919Z,99.90
2023-04-24T02:10:26.449Z,99.90
2023-04-24T02:12:53.470Z,99.90
2023-04-24T02:15:20.600Z,99.90
2023-04-24T02:17:47.718Z,99.90
2023-04-24T02:20:14.897Z,99.90
2023-04-24T02:22:41.949Z,99.90
2023-04-24T02:25:09.523Z,99.90
2023-04-24T02:27:36.517Z,99.90
2023-04-24T02:30:04.312Z,99.90
2023-04-24T02:32:32.096Z,99.90
2023-04-24T02:34:59.172Z,99.90
2023-04-24T02:37:26.496Z,99.90
2023-04-24T02:39:53.591Z,99.90
2023-04-24T02:42:20.612Z,99.90
2023-04-24T02:44:47.770Z,99.90
2023-04-24T02:47:14.870Z,99.90
2023-04-24T02:49:42.262Z,99.90
2023-04-24T02:52:09.492Z,99.90
2023-04-24T02:54:36.531Z,99.90
2023-04-24T02:57:03.734Z,99.90
2023-04-24T02:59:31.893Z,99.90
2023-04-24T03:01:58.939Z,99.90
2023-04-24T03:04:26.233Z,99.90
2023-04-24T03:06:55.916Z,99.90
2023-04-24T03:09:23.321Z,99.90
2023-04-24T03:11:51.009Z,99.90
2023-04-24T03:14:18.392Z,99.90
2023-04-24T03:16:45.806Z,99.90
2023-04-24T03:19:12.923Z,99.90
2023-04-24T03:21:41.835Z,99.90
2023-04-24T03:24:10.287Z,99.90
2023-04-24T03:26:37.405Z,99.90
2023-04-24T03:29:04.619Z,99.90
2023-04-24T03:31:31.747Z,99.90
2023-04-24T03:33:58.814Z,99.90
2023-04-24T03:36:27.166Z,99.90
2023-04-24T03:38:54.383Z,99.90
2023-04-24T03:41:21.585Z,99.90
2023-04-24T03:43:48.682Z,99.90
2023-04-24T03:46:16.436Z,99.90
2023-04-24T03:48:43.648Z,99.90
2023-04-24T03:51:10.798Z,99.90
2023-04-24T03:53:37.963Z,99.90
2023-04-24T03:56:05.084Z,99.90
2023-04-24T03:58:32.307Z,99.90
2023-04-24T04:00:59.700Z,99.90
2023-04-24T04:03:27.334Z,99.90
2023-04-24T04:05:55.370Z,99.90
2023-04-24T04:08:22.376Z,99.90
2023-04-24T04:10:49.652Z,99.90
2023-04-24T04:13:16.615Z,99.90
2023-04-24T04:15:43.883Z,99.90
2023-04-24T04:18:11.081Z,99.90
2023-04-24T04:20:38.252Z,99.90
2023-04-24T04:23:05.225Z,99.90
2023-04-24T04:25:32.282Z,99.90
2023-04-24T04:28:00.724Z,99.90
2023-04-24T04:30:27.848Z,99.90
2023-04-24T04:32:54.864Z,99.90
2023-04-24T04:35:23.045Z,99.90
2023-04-24T04:37:50.484Z,99.90
2023-04-24T04:40:17.495Z,99.90
2023-04-24T04:42:47.145Z,99.90
2023-04-24T04:45:14.277Z,99.90
2023-04-24T04:47:41.285Z,99.90
2023-04-24T04:50:08.787Z,99.90
2023-04-24T04:52:35.879Z,99.90
2023-04-24T04:55:03.380Z,99.90
2023-04-24T04:57:31.320Z,99.90
2023-04-24T04:59:58.409Z,99.90
2023-04-24T05:02:25.541Z,99.90
2023-04-24T05:04:52.896Z,99.90
2023-04-24T05:07:20.124Z,99.90
2023-04-24T05:09:47.314Z,99.90
2023-04-24T05:12:14.272Z,99.90
2023-04-24T05:14:41.721Z,99.90
2023-04-24T05:17:08.814Z,99.90
2023-04-24T05:19:37.146Z,99.90
2023-04-24T05:22:05.415Z,99.90
2023-04-24T05:24:32.461Z,99.90
2023-04-24T05:27:00.393Z,99.90
2023-04-24T05:29:27.716Z,99.90
2023-04-24T05:31:54.853Z,99.90
2023-04-24T05:34:21.922Z,99.90
2023-04-24T05:36:49.281Z,99.90
2023-04-24T05:39:16.396Z,99.90
2023-04-24T05:41:43.738Z,99.90
2023-04-24T05:44:10.818Z,99.90
2023-04-24T05:46:42.170Z,99.90
2023-04-24T05:49:14.942Z,99.90
2023-04-24T05:51:42.483Z,99.90
2023-04-24T05:54:13.349Z,99.90
2023-04-24T05:56:52.999Z,99.90
2023-04-24T05:59:20.288Z,99.90
2023-04-24T06:01:47.499Z,99.90
2023-04-24T06:04:15.282Z,99.90
2023-04-24T06:06:42.494Z,99.90
2023-04-24T06:09:09.827Z,99.90
2023-04-24T06:11:37.029Z,99.90
2023-04-24T06:14:04.108Z,99.90
2023-04-24T06:16:32.143Z,99.90
2023-04-24T06:18:59.521Z,99.90
2023-04-24T06:21:26.830Z,99.90
2023-04-24T06:23:53.778Z,99.90
2023-04-24T06:26:21.229Z,99.90
2023-04-24T06:28:48.281Z,99.90
2023-04-24T06:31:15.509Z,99.90
2023-04-24T06:33:42.560Z,99.90
2023-04-24T06:36:09.691Z,99.90
2023-04-24T06:38:37.024Z,99.90
2023-04-24T06:41:06.215Z,99.90
2023-04-24T06:43:33.535Z,99.90
2023-04-24T06:46:01.637Z,99.90
2023-04-24T06:48:28.730Z,99.90
2023-04-24T06:50:55.792Z,99.90
2023-04-24T06:53:22.814Z,99.90
2023-04-24T06:55:50.166Z,99.90
2023-04-24T06:58:17.193Z,99.90
2023-04-24T07:00:44.433Z,99.90
2023-04-24T07:03:11.629Z,99.90
2023-04-24T07:05:39.687Z,99.90
2023-04-24T07:08:07.948Z,99.90
2023-04-24T07:10:36.883Z,99.90
2023-04-24T07:13:03.871Z,99.90
2023-04-24T07:15:31.262Z,99.90
2023-04-24T07:17:58.281Z,99.90
2023-04-24T07:20:25.415Z,99.90
2023-04-24T07:22:53.037Z,99.90
2023-04-24T07:25:20.411Z,99.90
2023-04-24T07:27:47.428Z,99.90
2023-04-24T07:30:16.952Z,99.90
2023-04-24T07:32:44.093Z,99.90
2023-04-24T07:35:11.317Z,99.90
2023-04-24T07:37:38.556Z,99.90
2023-04-24T07:40:06.330Z,99.90
2023-04-24T07:42:35.816Z,99.90
2023-04-24T07:45:03.150Z,99.90
2023-04-24T07:47:31.070Z,99.90
2023-04-24T07:49:58.223Z,99.90
2023-04-24T07:52:25.971Z,99.90
2023-04-24T07:54:59.444Z,99.90
2023-04-24T07:57:26.901Z,99.90
2023-04-24T07:59:54.050Z,99.90
2023-04-24T08:02:22.938Z,99.90
2023-04-24T08:04:50.194Z,99.90
2023-04-24T08:07:18.129Z,99.90
2023-04-24T08:09:45.322Z,99.90
2023-04-24T08:12:12.575Z,99.90
2023-04-24T08:14:39.697Z,99.90
2023-04-24T08:17:06.879Z,99.90
2023-04-24T08:19:34.017Z,99.90
2023-04-24T08:22:01.140Z,99.90
2023-04-24T08:24:28.274Z,99.90
2023-04-24T08:26:57.858Z,99.90
2023-04-24T08:29:25.333Z,99.90
2023-04-24T08:31:52.443Z,99.90
2023-04-24T08:34:19.548Z,99.90
2023-04-24T08:36:47.718Z,99.90
2023-04-24T08:39:15.769Z,99.90
2023-04-24T08:41:46.675Z,99.90
2023-04-24T08:44:16.776Z,99.90
2023-04-24T08:46:48.875Z,99.90
2023-04-24T08:49:19.916Z,99.90
2023-04-24T08:51:48.792Z,99.90
2023-04-24T08:54:16.078Z,99.90
2023-04-24T08:56:45.251Z,99.90
2023-04-24T08:59:13.179Z,99.90
2023-04-24T09:01:42.047Z,99.90
2023-04-24T09:04:12.249Z,99.90
2023-04-24T09:06:40.012Z,99.90
2023-04-24T09:09:07.207Z,99.90
2023-04-24T09:11:34.350Z,99.90
2023-04-24T09:14:02.339Z,99.90
2023-04-24T09:16:29.440Z,99.90
2023-04-24T09:18:57.049Z,99.90
2023-04-24T09:21:24.969Z,99.90
2023-04-24T09:24:23.706Z,99.90
2023-04-24T09:26:59.412Z,99.90
2023-04-24T09:29:26.610Z,99.90
2023-04-24T09:31:53.778Z,99.90
2023-04-24T09:34:28.170Z,99.90
2023-04-24T09:36:55.908Z,99.90
2023-04-24T09:39:23.024Z,99.90
2023-04-24T09:41:52.474Z,99.50
2023-04-24T09:44:24.244Z,99.90
2023-04-24T09:46:53.532Z,99.00
2023-04-24T09:49:29.138Z,98.20
2023-04-24T09:52:11.011Z,99.10
2023-04-24T09:54:39.505Z,99.90
2023-04-24T09:57:09.430Z,97.30
2023-04-24T09:59:37.447Z,99.90
2023-04-24T10:02:17.510Z,97.10
2023-04-24T10:04:57.529Z,96.10
2023-04-24T10:07:27.423Z,95.90
2023-04-24T10:09:55.051Z,95.50
2023-04-24T10:12:22.948Z,96.70
2023-04-24T10:14:50.187Z,97.10
2023-04-24T10:17:17.639Z,96.70
2023-04-24T10:19:45.023Z,94.00
2023-04-24T10:22:12.716Z,94.60
2023-04-24T10:24:40.559Z,95.40
2023-04-24T10:27:09.328Z,95.40
2023-04-24T10:29:37.622Z,95.80
2023-04-24T10:32:04.671Z,97.30
2023-04-24T10:34:31.682Z,98.00
2023-04-24T10:36:58.991Z,96.10
2023-04-24T10:39:27.884Z,96.10
2023-04-24T10:41:59.018Z,96.40
2023-04-24T10:44:26.152Z,95.70
2023-04-24T10:46:57.409Z,95.50
2023-04-24T10:49:32.362Z,95.60
2023-04-24T10:52:08.678Z,96.20
2023-04-24T10:54:35.774Z,95.50
2023-04-24T10:57:21.867Z,95.20
2023-04-24T10:59:51.810Z,96.40
2023-04-24T11:02:19.788Z,98.00
2023-04-24T11:04:47.492Z,98.00
2023-04-24T11:07:14.985Z,97.90
2023-04-24T11:09:44.471Z,97.60
2023-04-24T11:12:15.067Z,98.20
2023-04-24T11:14:58.053Z,98.20
2023-04-24T11:17:39.377Z,99.90
2023-04-24T11:20:27.628Z,99.40
2023-04-24T11:22:56.498Z,97.60
2023-04-24T11:25:23.999Z,96.70
2023-04-24T11:27:51.605Z,98.10
2023-04-24T11:30:21.214Z,97.90
2023-04-24T11:32:54.696Z,97.80
2023-04-24T11:35:26.171Z,97.70
2023-04-24T11:40:26.595Z,99.10
2023-04-24T11:42:56.735Z,95.50
2023-04-24T11:45:24.903Z,96.00
2023-04-24T11:47:52.406Z,96.80
2023-04-24T11:50:22.817Z,95.60
2023-04-24T11:52:51.373Z,94.60
2023-04-24T11:55:18.764Z,95.70
2023-04-24T11:57:47.246Z,96.70
2023-04-24T12:00:18.455Z,98.30
2023-04-24T12:02:46.290Z,99.40
2023-04-24T12:05:27.242Z,99.90
2023-04-24T12:07:55.871Z,99.90
2023-04-24T12:10:24.708Z,99.20
2023-04-24T12:12:52.553Z,99.90
2023-04-24T12:15:22.255Z,99.90
2023-04-24T12:17:53.803Z,99.90
2023-04-24T12:20:30.309Z,99.90
2023-04-24T12:22:59.251Z,99.90
2023-04-24T12:25:35.836Z,99.90
2023-04-24T12:28:05.982Z,99.90
2023-04-24T12:30:42.297Z,97.10
2023-04-24T12:33:09.494Z,96.70
2023-04-24T12:35:37.090Z,97.20
2023-04-24T12:38:09.395Z,97.10
2023-04-24T12:40:37.243Z,97.40
2023-04-24T12:43:15.738Z,97.30
2023-04-24T12:45:42.716Z,96.50
2023-04-24T12:48:09.806Z,96.60
2023-04-24T12:50:36.855Z,97.50
2023-04-24T12:53:03.955Z,97.00
2023-04-24T12:55:31.016Z,97.10
2023-04-24T12:57:57.957Z,99.20
2023-04-24T13:00:24.996Z,99.20
2023-04-24T13:02:52.349Z,99.20
2023-04-24T13:05:19.924Z,99.90
2023-04-24T13:07:49.235Z,99.90
2023-04-24T13:10:16.478Z,99.90
2023-04-24T13:12:46.751Z,99.90
2023-04-24T13:15:14.474Z,99.90
2023-04-24T13:17:41.561Z,99.90
2023-04-24T13:20:08.948Z,99.90
2023-04-24T13:22:36.939Z,99.90
2023-04-24T13:25:04.680Z,99.90
2023-04-24T13:27:31.768Z,99.90
2023-04-24T13:29:58.815Z,99.90
2023-04-24T13:32:26.417Z,98.90
2023-04-24T13:34:53.464Z,98.30
2023-04-24T13:37:20.511Z,98.20
2023-04-24T13:39:47.505Z,97.60
2023-04-24T13:42:14.535Z,98.20
2023-04-24T13:44:42.939Z,98.60
2023-04-24T13:47:10.144Z,99.10
2023-04-24T13:49:37.227Z,99.70
2023-04-24T13:52:04.264Z,99.30
2023-04-24T13:54:31.446Z,99.40
2023-04-24T13:56:59.867Z,98.70
2023-04-24T13:59:27.195Z,98.80
2023-04-24T14:01:54.311Z,98.80
2023-04-24T14:04:21.697Z,98.80
2023-04-24T14:06:49.007Z,99.20
2023-04-24T14:09:16.419Z,99.60
2023-04-24T14:11:43.486Z,99.60
2023-04-24T14:14:10.497Z,99.90
2023-04-24T14:16:37.738Z,99.90
2023-04-24T14:19:06.683Z,99.90
2023-04-24T14:21:34.482Z,99.90
2023-04-24T14:24:01.696Z,99.90
2023-04-24T14:26:28.777Z,99.90
2023-04-24T14:29:04.050Z,99.90
2023-04-24T14:31:38.399Z,99.90
2023-04-24T14:34:05.509Z,99.90
2023-04-24T14:36:32.665Z,99.90
2023-04-24T14:38:59.710Z,99.90
2023-04-24T14:41:26.761Z,99.90
2023-04-24T14:43:53.686Z,99.90
2023-04-24T14:46:21.312Z,99.90
2023-04-24T14:48:48.473Z,99.90
2023-04-24T14:51:15.773Z,99.10
2023-04-24T14:53:42.925Z,99.00
2023-04-24T14:56:10.069Z,99.80
2023-04-24T14:58:37.062Z,99.90
2023-04-24T15:01:04.188Z,99.90
2023-04-24T15:03:32.226Z,99.90
2023-04-24T15:05:59.518Z,99.90
2023-04-24T15:08:26.516Z,99.90
2023-04-24T15:10:53.863Z,99.90
2023-04-24T15:13:21.155Z,99.90
2023-04-24T15:15:48.853Z,99.90
2023-04-24T15:18:15.937Z,99.90
2023-04-24T15:20:43.149Z,99.90
2023-04-24T15:23:10.754Z,99.90
2023-04-24T15:25:39.376Z,99.90
2023-04-24T15:28:07.168Z,99.90
2023-04-24T15:30:34.299Z,99.90
2023-04-24T15:33:04.739Z,99.90
2023-04-24T15:35:31.856Z,99.90
2023-04-24T15:37:59.012Z,99.90
2023-04-24T15:40:26.032Z,99.70
2023-04-24T15:42:53.090Z,99.80
2023-04-24T15:45:20.347Z,99.60
2023-04-24T15:47:47.724Z,99.30
2023-04-24T15:50:16.637Z,99.90
2023-04-24T15:52:44.377Z,99.90
2023-04-24T15:55:12.630Z,99.90
2023-04-24T15:57:41.804Z,99.20
2023-04-24T16:00:11.228Z,99.90
2023-04-24T16:02:38.649Z,99.40
2023-04-24T16:05:07.875Z,99.90
2023-04-24T16:07:36.278Z,99.90
2023-04-24T16:10:03.500Z,99.30
2023-04-24T16:12:30.949Z,99.60
2023-04-24T16:14:58.254Z,99.90
2023-04-24T16:17:25.472Z,99.90
2023-04-24T16:19:52.704Z,99.90
2023-04-24T16:22:19.936Z,99.90
2023-04-24T16:24:48.227Z,99.90
2023-04-24T16:27:16.048Z,99.90
2023-04-24T16:29:43.159Z,99.90
2023-04-24T16:32:11.139Z,99.90
2023-04-24T16:34:38.312Z,99.90
2023-04-24T16:37:06.578Z,99.90
2023-04-24T16:39:33.808Z,99.90
2023-04-24T16:42:02.025Z,99.40
2023-04-24T16:44:29.069Z,99.90
2023-04-24T16:46:56.951Z,99.20
2023-04-24T16:49:24.260Z,99.90
2023-04-24T16:51:51.462Z,99.90
2023-04-24T16:54:18.481Z,99.90
2023-04-24T16:56:45.946Z,99.90
2023-04-24T16:59:13.101Z,99.90
2023-04-24T17:01:40.320Z,99.90
2023-04-24T17:04:07.694Z,99.90
2023-04-24T17:06:35.669Z,99.90
2023-04-24T17:09:03.988Z,99.90
2023-04-24T17:11:31.438Z,99.90
2023-04-24T17:14:01.615Z,99.90
2023-04-24T17:16:29.461Z,99.90
2023-04-24T17:18:56.580Z,99.90
2023-04-24T17:21:23.869Z,99.90
2023-04-24T17:23:51.022Z,99.90
2023-04-24T17:26:18.149Z,99.90
2023-04-24T17:28:45.296Z,99.90
2023-04-24T17:31:12.694Z,99.90
2023-04-24T17:33:39.806Z,99.90
2023-04-24T17:36:07.443Z,99.90
2023-04-24T17:38:34.603Z,99.90
2023-04-24T17:41:01.766Z,99.90
2023-04-24T17:43:29.066Z,99.90
2023-04-24T17:45:56.697Z,99.90
2023-04-24T17:48:24.081Z,99.90
2023-04-24T17:50:51.847Z,99.90
2023-04-24T17:53:19.550Z,99.90
2023-04-24T17:55:46.901Z,99.90
2023-04-24T17:58:14.616Z,99.90
2023-04-24T18:00:42.266Z,99.90
2023-04-24T18:03:10.537Z,99.90
2023-04-24T18:05:39.165Z,99.90
2023-04-24T18:08:06.666Z,99.90
2023-04-24T18:10:36.530Z,99.90
2023-04-24T18:13:04.995Z,99.90
2023-04-24T18:15:32.321Z,99.90
2023-04-24T18:17:59.870Z,99.90
2023-04-24T18:20:27.372Z,99.90
2023-04-24T18:22:54.553Z,99.90
2023-04-24T18:25:26.992Z,99.90
2023-04-24T18:27:55.917Z,99.90
2023-04-24T18:30:24.288Z,99.90
2023-04-24T18:32:53.429Z,99.90
2023-04-24T18:35:21.379Z,99.90
2023-04-24T18:37:48.809Z,99.90
2023-04-24T18:40:16.158Z,99.90
2023-04-24T18:42:44.480Z,99.90
2023-04-24T18:45:14.686Z,99.90
2023-04-24T18:47:43.464Z,99.90
2023-04-24T18:50:11.350Z,99.90
2023-04-24T18:52:38.578Z,99.90
2023-04-24T18:55:07.286Z,99.90
2023-04-24T18:57:34.483Z,99.90
2023-04-24T19:00:01.769Z,99.90
2023-04-24T19:02:29.341Z,99.90
2023-04-24T19:04:56.442Z,99.90
2023-04-24T19:07:23.560Z,99.90
2023-04-24T19:09:50.555Z,99.90
2023-04-24T19:12:17.984Z,99.90
2023-04-24T19:14:46.495Z,99.90
2023-04-24T19:17:14.092Z,99.90
2023-04-24T19:19:41.094Z,99.90
2023-04-24T19:22:08.181Z,99.90
2023-04-24T19:24:35.631Z,99.90
2023-04-24T19:27:02.848Z,99.90
2023-04-24T19:29:29.968Z,99.90
2023-04-24T19:31:58.759Z,99.90
2023-04-24T19:34:26.582Z,99.90
2023-04-24T19:36:53.648Z,99.90
2023-04-24T19:39:20.802Z,99.90
2023-04-24T19:41:48.058Z,99.90
2023-04-24T19:44:17.395Z,99.90
2023-04-24T19:46:44.614Z,99.90
2023-04-24T19:49:12.125Z,99.90
2023-04-24T19:51:39.539Z,99.90
2023-04-24T19:54:07.013Z,99.90
2023-04-24T19:56:34.151Z,99.90
2023-04-24T19:59:01.240Z,99.90
2023-04-24T20:01:28.487Z,99.90
2023-04-24T20:03:55.883Z,99.90
2023-04-24T20:06:23.190Z,99.90
2023-04-24T20:08:50.824Z,99.90
2023-04-24T20:11:18.852Z,99.90
2023-04-24T20:13:46.046Z,99.90
2023-04-24T20:16:13.311Z,99.90
2023-04-24T20:18:40.616Z,99.90
2023-04-24T20:21:09.441Z,99.90
2023-04-24T20:23:37.457Z,99.90
2023-04-24T20:26:05.132Z,99.90
2023-04-24T20:28:32.946Z,99.90
2023-04-24T20:31:00.455Z,99.90
2023-04-24T20:33:28.665Z,99.90
2023-04-24T20:35:55.857Z,99.90
2023-04-24T20:38:24.532Z,99.90
2023-04-24T20:43:23.448Z,99.90
2023-04-24T20:45:51.151Z,99.90
2023-04-24T20:48:18.327Z,99.90
2023-04-24T20:50:45.508Z,99.90
2023-04-24T20:53:12.542Z,99.90
2023-04-24T20:55:39.752Z,99.90
2023-04-24T20:58:06.786Z,99.90
2023-04-24T21:00:34.180Z,99.90
2023-04-24T21:03:01.618Z,99.90
2023-04-24T21:05:28.722Z,99.90
2023-04-24T21:07:56.313Z,99.90
2023-04-24T21:10:24.425Z,99.90
2023-04-24T21:12:51.481Z,99.90
2023-04-24T21:15:18.816Z,99.90
2023-04-24T21:17:46.129Z,99.90
2023-04-24T21:20:13.411Z,99.90
2023-04-24T21:22:40.419Z,99.90
2023-04-24T21:25:08.662Z,99.90
2023-04-24T21:27:36.722Z,99.90
2023-04-24T21:30:06.500Z,99.90
2023-04-24T21:32:33.770Z,99.90
2023-04-24T21:35:01.050Z,99.90
2023-04-24T21:37:28.189Z,99.90
2023-04-24T21:39:55.363Z,99.90
2023-04-24T21:42:22.582Z,99.90
2023-04-24T21:44:49.616Z,99.90
2023-04-24T21:47:16.697Z,99.90
2023-04-24T21:49:43.739Z,99.90
2023-04-24T21:52:10.685Z,99.90
2023-04-24T21:54:37.951Z,99.90
2023-04-24T21:57:05.520Z,99.90
2023-04-24T21:59:33.641Z,99.90
2023-04-24T22:02:00.765Z,99.90
2023-04-24T22:04:27.962Z,99.90
2023-04-24T22:06:55.316Z,99.90
2023-04-24T22:09:22.338Z,99.90
2023-04-24T22:11:49.563Z,99.90
2023-04-24T22:14:17.342Z,99.90
2023-04-24T22:16:46.140Z,99.90
2023-04-24T22:19:13.286Z,99.90
2023-04-24T22:21:41.058Z,99.90
2023-04-24T22:24:09.783Z,99.90
2023-04-24T22:26:36.777Z,99.90
2023-04-24T22:29:03.793Z,99.90
2023-04-24T22:31:30.912Z,99.90
2023-04-24T22:33:58.116Z,99.90
2023-04-24T22:36:25.184Z,99.90
2023-04-24T22:38:52.391Z,99.90
2023-04-24T22:41:19.433Z,99.90
2023-04-24T22:43:46.833Z,99.90
2023-04-24T22:46:13.990Z,99.90
2023-04-24T22:48:41.181Z,99.90
2023-04-24T22:51:08.303Z,99.90
2023-04-24T22:53:36.373Z,99.90
2023-04-24T22:56:03.575Z,99.90
2023-04-24T22:58:30.821Z,99.90
2023-04-24T23:00:58.035Z,99.90
2023-04-24T23:03:25.876Z,99.90
2023-04-24T23:05:53.157Z,99.90
2023-04-24T23:08:20.419Z,99.90
2023-04-24T23:10:48.076Z,99.90
2023-04-24T23:13:15.398Z,99.90
2023-04-24T23:15:42.567Z,99.90
2023-04-24T23:18:09.863Z,99.90
2023-04-24T23:20:37.668Z,99.90
2023-04-24T23:23:05.506Z,99.90
2023-04-24T23:25:33.154Z,99.90
2023-04-24T23:28:00.155Z,99.90
2023-04-24T23:30:27.416Z,99.90
2023-04-24T23:32:54.492Z,99.90
2023-04-24T23:35:21.588Z,99.90
2023-04-24T23:37:48.656Z,99.90
2023-04-24T23:40:15.768Z,99.90
2023-04-24T23:42:42.789Z,99.90
2023-04-24T23:45:11.107Z,99.90
2023-04-24T23:47:38.786Z,99.90
2023-04-24T23:50:06.392Z,99.90
2023-04-24T23:52:35.427Z,99.90
2023-04-24T23:55:04.804Z,99.90
2023-04-24T23:57:32.374Z,99.90
2023-04-24T23:59:59.496Z,99.90
